Time;durP1;ratioP1;P1;durP2;ratioP2;P2;SDS_P1;SDS_P2;PMS_P1;PMS_P2;Temp;Humidity;BMP_temperature;BMP_pressure;BME280_temperature;BME280_humidity;BME280_pressure;Samples;Min_cycle;Max_cycle;Signal;HPM_P1;HPM_P2
2022/05/29 00:00:09;;;;;;;12.47;5.40;;;;;;;;;;4963790;28;20667;-43
2022/05/29 00:02:35;;;;;;;16.80;4.73;;;;;;;;;;4964264;28;20249;-44
2022/05/29 00:05:01;;;;;;;15.03;5.07;;;;;;;;;;4961443;28;20955;-44
2022/05/29 00:07:28;;;;;;;12.10;4.50;;;;;;;;;;4961301;28;20183;-42
2022/05/29 00:09:54;;;;;;;20.40;5.13;;;;;;;;;;4958143;28;20210;-44
2022/05/29 00:12:24;;;;;;;16.73;4.60;;;;;;;;;;4962610;28;20175;-43
2022/05/29 00:14:51;;;;;;;12.80;4.57;;;;;;;;;;4960210;28;20296;-44
2022/05/29 00:17:18;;;;;;;13.10;4.60;;;;;;;;;;4964573;28;20170;-42
2022/05/29 00:19:44;;;;;;;12.17;4.20;;;;;;;;;;4961428;28;20319;-42
2022/05/29 00:22:11;;;;;;;12.50;4.33;;;;;;;;;;4963358;28;20197;-43
2022/05/29 00:24:38;;;;;;;14.37;4.60;;;;;;;;;;4959958;28;20182;-42
2022/05/29 00:27:05;;;;;;;10.23;4.30;;;;;;;;;;4963737;28;20618;-43
2022/05/29 00:29:31;;;;;;;9.67;4.77;;;;;;;;;;4963539;28;20205;-42
2022/05/29 00:31:57;;;;;;;12.17;4.10;;;;;;;;;;4960811;28;20288;-43
2022/05/29 00:34:23;;;;;;;10.47;4.10;;;;;;;;;;4959023;28;20181;-42
2022/05/29 00:36:49;;;;;;;13.30;4.20;;;;;;;;;;4962728;28;20655;-42
2022/05/29 00:39:16;;;;;;;10.23;3.63;;;;;;;;;;4960488;28;20182;-43
2022/05/29 00:41:42;;;;;;;8.60;3.73;;;;;;;;;;4959514;28;20396;-43
2022/05/29 00:44:13;;;;;;;13.73;3.97;;;;;;;;;;4962395;28;20766;-43
2022/05/29 00:46:40;;;;;;;7.27;4.33;;;;;;;;;;4961374;28;20275;-43
2022/05/29 00:49:07;;;;;;;8.40;3.80;;;;;;;;;;4959210;28;20441;-42
2022/05/29 00:51:38;;;;;;;11.60;4.10;;;;;;;;;;4962416;28;20630;-42
2022/05/29 00:54:05;;;;;;;10.30;3.80;;;;;;;;;;4961563;28;20179;-43
2022/05/29 00:56:32;;;;;;;9.83;4.37;;;;;;;;;;4961661;28;20812;-43
2022/05/29 00:58:59;;;;;;;9.70;4.90;;;;;;;;;;4963228;28;20190;-43
2022/05/29 01:01:25;;;;;;;7.00;3.80;;;;;;;;;;4962820;28;20487;-43
2022/05/29 01:03:52;;;;;;;10.17;4.17;;;;;;;;;;4960940;28;20350;-43
2022/05/29 01:06:18;;;;;;;10.13;4.67;;;;;;;;;;4959300;28;20186;-42
2022/05/29 01:08:44;;;;;;;8.40;3.97;;;;;;;;;;4964093;28;20218;-43
2022/05/29 01:11:30;;;;;;;9.67;4.50;;;;;;;;;;4957839;28;20265;-43
2022/05/29 01:14:02;;;;;;;10.03;4.57;;;;;;;;;;4958293;28;20338;-43
2022/05/29 01:16:41;;;;;;;10.60;4.87;;;;;;;;;;4961842;28;20934;-42
2022/05/29 01:19:16;;;;;;;11.40;5.20;;;;;;;;;;4938588;28;20429;-43
2022/05/29 01:21:51;;;;;;;11.67;5.30;;;;;;;;;;4956016;28;20189;-43
2022/05/29 01:24:17;;;;;;;13.73;5.23;;;;;;;;;;4956850;28;20544;-43
2022/05/29 01:27:02;;;;;;;11.30;4.53;;;;;;;;;;4958654;28;20740;-43
2022/05/29 01:29:37;;;;;;;12.37;4.53;;;;;;;;;;4957512;28;20206;-43
2022/05/29 01:32:07;;;;;;;10.03;4.83;;;;;;;;;;4960632;28;20197;-43
2022/05/29 01:34:40;;;;;;;11.17;5.03;;;;;;;;;;4959014;28;20193;-43
2022/05/29 01:37:18;;;;;;;11.53;4.83;;;;;;;;;;4958048;28;20250;-42
2022/05/29 01:39:54;;;;;;;11.67;5.30;;;;;;;;;;4960883;28;20213;-42
2022/05/29 01:42:33;;;;;;;10.67;4.97;;;;;;;;;;4957531;28;20181;-43
2022/05/29 01:45:02;;;;;;;8.50;4.30;;;;;;;;;;4957036;28;20194;-42
2022/05/29 01:47:37;;;;;;;7.07;4.87;;;;;;;;;;4959990;28;20193;-43
2022/05/29 01:50:07;;;;;;;13.60;5.77;;;;;;;;;;4953813;28;20248;-43
2022/05/29 01:52:40;;;;;;;12.00;4.93;;;;;;;;;;4956961;28;20277;-43
2022/05/29 01:55:16;;;;;;;13.50;5.73;;;;;;;;;;4961033;28;20174;-43
2022/05/29 01:57:45;;;;;;;11.43;5.97;;;;;;;;;;4958802;28;20280;-42
2022/05/29 02:00:13;;;;;;;8.40;5.03;;;;;;;;;;4955625;28;20193;-43
2022/05/29 02:02:51;;;;;;;10.10;5.37;;;;;;;;;;4958048;28;20182;-43
2022/05/29 02:05:20;;;;;;;11.73;5.73;;;;;;;;;;4960357;28;20439;-42
2022/05/29 02:07:48;;;;;;;14.73;5.63;;;;;;;;;;4959215;28;20181;-42
2022/05/29 02:10:19;;;;;;;11.90;5.83;;;;;;;;;;4940340;28;20399;-43
2022/05/29 02:12:58;;;;;;;13.17;5.10;;;;;;;;;;4956954;28;20608;-43
2022/05/29 02:15:40;;;;;;;12.70;6.33;;;;;;;;;;4956992;28;20173;-42
2022/05/29 02:18:08;;;;;;;12.10;6.07;;;;;;;;;;4956753;28;20178;-43
2022/05/29 02:20:37;;;;;;;10.40;4.90;;;;;;;;;;4958110;28;20181;-43
2022/05/29 02:23:33;;;;;;;12.17;5.33;;;;;;;;;;4956814;28;20186;-42
2022/05/29 02:26:00;;;;;;;12.40;5.47;;;;;;;;;;4933885;28;20303;-43
2022/05/29 02:28:33;;;;;;;8.43;4.57;;;;;;;;;;4958906;28;20967;-43
2022/05/29 02:31:13;;;;;;;10.97;4.77;;;;;;;;;;4958565;28;20213;-43
2022/05/29 02:33:48;;;;;;;12.13;5.37;;;;;;;;;;4957340;28;20247;-43
2022/05/29 02:36:29;;;;;;;10.10;4.43;;;;;;;;;;4957785;28;20248;-43
2022/05/29 02:39:14;;;;;;;8.10;4.47;;;;;;;;;;4958971;28;20213;-43
2022/05/29 02:41:53;;;;;;;12.03;4.80;;;;;;;;;;4955692;28;20602;-43
2022/05/29 02:44:29;;;;;;;7.63;4.03;;;;;;;;;;4954267;28;21072;-43
2022/05/29 02:47:31;;;;;;;9.97;4.60;;;;;;;;;;4955353;28;20588;-43
2022/05/29 02:50:00;;;;;;;10.70;4.90;;;;;;;;;;4898676;29;20735;-44
2022/05/29 02:52:26;;;;;;;8.37;5.10;;;;;;;;;;4946123;28;20601;-44
2022/05/29 02:54:52;;;;;;;9.83;5.13;;;;;;;;;;4953951;28;20178;-44
2022/05/29 02:57:18;;;;;;;10.87;5.50;;;;;;;;;;4957583;28;20183;-43
2022/05/29 02:59:52;;;;;;;9.97;5.00;;;;;;;;;;4956519;28;20575;-44
2022/05/29 03:02:24;;;;;;;8.27;4.73;;;;;;;;;;4956080;28;20403;-44
2022/05/29 03:05:05;;;;;;;11.13;4.97;;;;;;;;;;4957180;28;20253;-44
2022/05/29 03:07:50;;;;;;;11.23;6.10;;;;;;;;;;4956525;28;20178;-44
2022/05/29 03:10:21;;;;;;;9.27;5.07;;;;;;;;;;4954783;28;20201;-44
2022/05/29 03:13:08;;;;;;;7.80;4.53;;;;;;;;;;4957174;28;20182;-44
2022/05/29 03:15:41;;;;;;;12.30;5.80;;;;;;;;;;4953776;28;20178;-44
2022/05/29 03:18:16;;;;;;;9.87;5.63;;;;;;;;;;4960185;28;20182;-44
2022/05/29 03:20:49;;;;;;;11.10;5.40;;;;;;;;;;4961322;28;20589;-44
2022/05/29 03:23:21;;;;;;;8.90;4.37;;;;;;;;;;4959262;28;20183;-44
2022/05/29 03:25:49;;;;;;;9.40;5.63;;;;;;;;;;4957714;28;20689;-44
2022/05/29 03:28:39;;;;;;;8.50;4.70;;;;;;;;;;4960179;28;20983;-44
2022/05/29 03:31:08;;;;;;;13.33;5.77;;;;;;;;;;4948544;28;20226;-43
2022/05/29 03:33:34;;;;;;;10.03;5.20;;;;;;;;;;4956513;28;20953;-44
2022/05/29 03:36:00;;;;;;;10.70;5.00;;;;;;;;;;4956358;28;20651;-44
2022/05/29 03:38:26;;;;;;;7.00;4.43;;;;;;;;;;4961089;28;20195;-44
2022/05/29 03:40:52;;;;;;;9.13;4.43;;;;;;;;;;4961265;28;20745;-44
2022/05/29 03:43:18;;;;;;;9.80;5.40;;;;;;;;;;4956791;28;20598;-44
2022/05/29 03:45:44;;;;;;;11.17;5.90;;;;;;;;;;4960460;28;20209;-44
2022/05/29 03:48:10;;;;;;;12.13;5.73;;;;;;;;;;4962622;28;20174;-43
2022/05/29 03:50:36;;;;;;;8.97;5.30;;;;;;;;;;4963880;28;20209;-44
2022/05/29 03:53:04;;;;;;;8.60;5.37;;;;;;;;;;4960340;28;20719;-44
2022/05/29 03:55:30;;;;;;;11.33;5.37;;;;;;;;;;4963579;28;20501;-44
2022/05/29 03:57:57;;;;;;;10.23;4.90;;;;;;;;;;4959851;28;20186;-43
2022/05/29 04:00:24;;;;;;;9.97;5.07;;;;;;;;;;4958193;28;20631;-44
2022/05/29 04:02:50;;;;;;;12.20;4.90;;;;;;;;;;4942870;28;20228;-44
2022/05/29 04:05:20;;;;;;;12.90;6.63;;;;;;;;;;4958765;28;20186;-44
2022/05/29 04:13:18;;;;;;;11.17;5.90;;;;;;;;;;4963724;28;20197;-44
2022/05/29 04:15:47;;;;;;;13.17;6.10;;;;;;;;;;4960114;28;20535;-44
2022/05/29 04:18:15;;;;;;;11.57;6.30;;;;;;;;;;4963903;28;20400;-44
2022/05/29 04:20:41;;;;;;;11.77;5.87;;;;;;;;;;4921737;28;20520;-44
2022/05/29 04:23:07;;;;;;;13.67;5.97;;;;;;;;;;4959973;28;20781;-44
2022/05/29 04:25:33;;;;;;;12.80;6.73;;;;;;;;;;4961006;28;20240;-43
2022/05/29 04:28:01;;;;;;;15.20;5.80;;;;;;;;;;4956947;28;20224;-44
2022/05/29 04:30:27;;;;;;;12.47;5.57;;;;;;;;;;4955429;28;20214;-44
2022/05/29 04:33:02;;;;;;;12.83;5.73;;;;;;;;;;4959355;28;20190;-44
2022/05/29 04:35:38;;;;;;;9.97;5.50;;;;;;;;;;4960921;28;20178;-43
2022/05/29 04:38:04;;;;;;;14.73;5.67;;;;;;;;;;4954151;28;20623;-44
2022/05/29 04:40:31;;;;;;;13.20;5.80;;;;;;;;;;4955992;28;21202;-44
2022/05/29 04:42:57;;;;;;;9.90;4.60;;;;;;;;;;4937260;28;20808;-42
2022/05/29 04:45:23;;;;;;;13.53;5.60;;;;;;;;;;4956010;28;20465;-42
2022/05/29 04:47:49;;;;;;;11.70;5.13;;;;;;;;;;4953054;28;20190;-42
2022/05/29 04:50:15;;;;;;;10.33;5.60;;;;;;;;;;4957910;28;20200;-42
2022/05/29 04:52:41;;;;;;;13.50;4.37;;;;;;;;;;4954369;28;20181;-42
2022/05/29 04:55:08;;;;;;;9.23;4.60;;;;;;;;;;4959877;28;20261;-42
2022/05/29 04:57:34;;;;;;;8.80;4.60;;;;;;;;;;4956495;28;20571;-43
2022/05/29 05:00:01;;;;;;;10.13;4.23;;;;;;;;;;4957689;28;20799;-43
2022/05/29 05:02:27;;;;;;;8.77;4.40;;;;;;;;;;4955500;28;21809;-42
2022/05/29 05:04:53;;;;;;;16.17;5.30;;;;;;;;;;4959215;28;21637;-42
2022/05/29 05:07:19;;;;;;;8.50;5.10;;;;;;;;;;4956416;28;20221;-42
2022/05/29 05:09:46;;;;;;;10.03;5.00;;;;;;;;;;4957949;28;20206;-42
2022/05/29 05:12:12;;;;;;;9.47;5.07;;;;;;;;;;4958062;28;20457;-42
2022/05/29 05:14:38;;;;;;;10.53;4.93;;;;;;;;;;4951607;28;20485;-44
2022/05/29 05:17:04;;;;;;;11.00;5.20;;;;;;;;;;4954170;28;20217;-42
2022/05/29 05:19:30;;;;;;;11.10;5.60;;;;;;;;;;4955296;28;20220;-42
2022/05/29 05:21:59;;;;;;;7.73;4.80;;;;;;;;;;4955749;28;20745;-43
2022/05/29 05:24:25;;;;;;;10.77;5.43;;;;;;;;;;4956308;28;20174;-44
2022/05/29 05:26:51;;;;;;;10.43;5.30;;;;;;;;;;4959144;28;21123;-43
2022/05/29 05:29:17;;;;;;;8.27;4.53;;;;;;;;;;4940402;28;20268;-44
2022/05/29 05:31:44;;;;;;;10.17;5.60;;;;;;;;;;4955827;28;20580;-43
2022/05/29 05:34:10;;;;;;;9.93;5.43;;;;;;;;;;4956958;28;20182;-44
2022/05/29 05:36:36;;;;;;;8.93;5.03;;;;;;;;;;4959142;28;20182;-43
2022/05/29 05:39:02;;;;;;;9.43;5.70;;;;;;;;;;4954516;28;20862;-44
2022/05/29 05:41:28;;;;;;;10.37;5.33;;;;;;;;;;4957356;28;20874;-44
2022/05/29 05:43:54;;;;;;;6.57;5.33;;;;;;;;;;4953815;28;20616;-42
2022/05/29 05:46:21;;;;;;;11.87;6.20;;;;;;;;;;4953010;28;20173;-43
2022/05/29 05:48:48;;;;;;;9.70;6.17;;;;;;;;;;4959011;28;20179;-42
2022/05/29 05:51:14;;;;;;;11.60;6.50;;;;;;;;;;4937614;28;20548;-42
2022/05/29 05:53:41;;;;;;;7.93;6.23;;;;;;;;;;4955761;28;20186;-43
2022/05/29 05:56:17;;;;;;;9.13;6.53;;;;;;;;;;4955878;28;20266;-43
2022/05/29 05:58:44;;;;;;;10.37;6.53;;;;;;;;;;4953519;28;20173;-43
2022/05/29 06:01:15;;;;;;;9.63;5.93;;;;;;;;;;4953920;28;20344;-43
2022/05/29 06:03:41;;;;;;;6.03;4.90;;;;;;;;;;4956492;28;20262;-43
2022/05/29 06:06:07;;;;;;;10.90;5.90;;;;;;;;;;4952531;28;20205;-43
2022/05/29 06:08:34;;;;;;;8.40;6.37;;;;;;;;;;4958559;28;20681;-43
2022/05/29 06:11:00;;;;;;;7.93;5.77;;;;;;;;;;4957683;28;20209;-43
2022/05/29 06:13:27;;;;;;;8.77;6.90;;;;;;;;;;4957957;28;20644;-43
2022/05/29 06:15:53;;;;;;;11.90;5.90;;;;;;;;;;4937001;28;20186;-43
2022/05/29 06:18:19;;;;;;;6.60;5.57;;;;;;;;;;4957638;28;20547;-43
2022/05/29 06:20:46;;;;;;;10.07;6.80;;;;;;;;;;4955654;28;20591;-43
2022/05/29 06:23:13;;;;;;;8.17;6.00;;;;;;;;;;4954438;28;21038;-43
2022/05/29 06:25:39;;;;;;;8.70;6.13;;;;;;;;;;4953083;28;20255;-43
2022/05/29 06:28:05;;;;;;;9.67;7.30;;;;;;;;;;4953259;28;20183;-43
2022/05/29 06:30:32;;;;;;;8.40;6.30;;;;;;;;;;4953634;28;20690;-43
2022/05/29 06:32:59;;;;;;;11.37;7.00;;;;;;;;;;4955259;28;20197;-43
2022/05/29 06:35:25;;;;;;;8.83;7.00;;;;;;;;;;4953714;28;20288;-42
2022/05/29 06:37:51;;;;;;;7.43;5.87;;;;;;;;;;4954286;28;21213;-42
2022/05/29 06:40:17;;;;;;;12.90;7.60;;;;;;;;;;4956269;28;20629;-43
2022/05/29 06:42:43;;;;;;;9.33;6.53;;;;;;;;;;4956887;28;20295;-41
2022/05/29 06:45:10;;;;;;;8.73;6.10;;;;;;;;;;4953743;28;20267;-42
2022/05/29 06:47:37;;;;;;;8.03;5.87;;;;;;;;;;4955963;28;20216;-44
2022/05/29 06:50:03;;;;;;;7.83;5.80;;;;;;;;;;4955834;28;20634;-44
2022/05/29 06:52:31;;;;;;;7.70;5.87;;;;;;;;;;4953610;28;20812;-43
2022/05/29 06:54:57;;;;;;;9.50;5.80;;;;;;;;;;4955253;28;20178;-44
2022/05/29 06:57:44;;;;;;;6.40;5.07;;;;;;;;;;4952619;28;20182;-43
2022/05/29 07:08:29;;;;;;;6.30;5.47;;;;;;;;;;4960833;28;20189;-44
2022/05/29 07:11:06;;;;;;;7.10;5.00;;;;;;;;;;4956597;28;20310;-43
2022/05/29 07:13:32;;;;;;;8.23;5.17;;;;;;;;;;4957070;28;20714;-43
2022/05/29 07:15:59;;;;;;;8.23;5.00;;;;;;;;;;4956503;28;20320;-44
2022/05/29 07:18:25;;;;;;;9.87;5.60;;;;;;;;;;4951040;28;20174;-44
2022/05/29 07:20:51;;;;;;;7.47;4.70;;;;;;;;;;4958623;28;20193;-43
2022/05/29 07:23:17;;;;;;;10.70;5.63;;;;;;;;;;4960009;28;20713;-43
2022/05/29 07:25:43;;;;;;;8.20;5.50;;;;;;;;;;4957004;28;22311;-43
2022/05/29 07:28:09;;;;;;;6.47;4.47;;;;;;;;;;4957591;28;20189;-44
2022/05/29 07:30:37;;;;;;;8.73;5.37;;;;;;;;;;4961146;28;20737;-44
2022/05/29 07:33:03;;;;;;;7.37;4.70;;;;;;;;;;4959558;28;20324;-43
2022/05/29 07:35:29;;;;;;;7.77;4.50;;;;;;;;;;4950890;28;20186;-43
2022/05/29 07:37:56;;;;;;;9.10;4.77;;;;;;;;;;4960727;28;20651;-43
2022/05/29 07:40:22;;;;;;;6.70;4.47;;;;;;;;;;4949960;28;20193;-44
2022/05/29 07:45:33;;;;;;;5.90;4.43;;;;;;;;;;4960306;28;20218;-44
2022/05/29 07:48:00;;;;;;;7.13;4.83;;;;;;;;;;4959059;28;20628;-44
2022/05/29 07:50:26;;;;;;;7.37;4.20;;;;;;;;;;4953703;28;20206;-44
2022/05/29 07:52:54;;;;;;;7.20;4.30;;;;;;;;;;4955723;28;20174;-44
2022/05/29 07:55:20;;;;;;;5.90;4.27;;;;;;;;;;4952801;28;20284;-44
2022/05/29 07:57:47;;;;;;;5.97;4.73;;;;;;;;;;4957106;28;20225;-44
2022/05/29 08:00:15;;;;;;;6.57;4.37;;;;;;;;;;4958868;28;20748;-44
2022/05/29 08:02:41;;;;;;;7.93;4.30;;;;;;;;;;4955718;28;20248;-44
2022/05/29 08:05:08;;;;;;;9.43;4.50;;;;;;;;;;4955252;28;20604;-44
2022/05/29 08:07:34;;;;;;;8.20;4.33;;;;;;;;;;4952590;28;20504;-44
2022/05/29 08:10:00;;;;;;;8.30;4.57;;;;;;;;;;4953782;28;20619;-44
2022/05/29 08:12:27;;;;;;;5.63;3.60;;;;;;;;;;4957544;28;20217;-44
2022/05/29 08:14:53;;;;;;;7.60;4.30;;;;;;;;;;4958757;28;20182;-44
2022/05/29 08:17:19;;;;;;;7.60;4.57;;;;;;;;;;4959190;28;20178;-44
2022/05/29 08:19:45;;;;;;;6.60;4.00;;;;;;;;;;4954322;28;20194;-44
2022/05/29 08:22:11;;;;;;;7.70;4.43;;;;;;;;;;4952462;28;20413;-44
2022/05/29 08:33:03;;;;;;;8.33;3.73;;;;;;;;;;4955507;28;20660;-44
2022/05/29 08:35:30;;;;;;;5.40;3.60;;;;;;;;;;4957638;28;20189;-44
2022/05/29 08:37:56;;;;;;;8.63;4.10;;;;;;;;;;4950921;28;20185;-44
2022/05/29 08:40:22;;;;;;;7.77;3.80;;;;;;;;;;4941498;28;20219;-44
2022/05/29 08:42:48;;;;;;;8.60;3.70;;;;;;;;;;4954532;28;20296;-44
2022/05/29 08:45:16;;;;;;;6.20;3.77;;;;;;;;;;4949386;28;20630;-44
2022/05/29 08:47:46;;;;;;;5.47;3.83;;;;;;;;;;4950930;28;20194;-44
2022/05/29 08:50:23;;;;;;;7.43;4.03;;;;;;;;;;4953298;28;20198;-45
2022/05/29 08:53:02;;;;;;;5.93;3.73;;;;;;;;;;4958760;28;20702;-44
2022/05/29 08:55:39;;;;;;;6.30;3.37;;;;;;;;;;4951048;28;20571;-44
2022/05/29 08:58:09;;;;;;;5.50;3.20;;;;;;;;;;4952975;28;20170;-44
2022/05/29 09:00:38;;;;;;;4.73;3.20;;;;;;;;;;4938308;28;20190;-44
2022/05/29 09:03:23;;;;;;;6.63;3.50;;;;;;;;;;4955308;28;20201;-44
2022/05/29 09:05:58;;;;;;;6.10;3.83;;;;;;;;;;4950011;28;20661;-44
2022/05/29 09:08:27;;;;;;;6.93;3.30;;;;;;;;;;4951958;28;20185;-44
2022/05/29 09:11:00;;;;;;;7.53;3.23;;;;;;;;;;4953460;28;20221;-44
2022/05/29 09:13:30;;;;;;;3.83;3.10;;;;;;;;;;4953795;28;20260;-44
2022/05/29 09:16:01;;;;;;;7.20;3.50;;;;;;;;;;4946643;28;20650;-43
2022/05/29 09:18:29;;;;;;;3.83;2.90;;;;;;;;;;4946048;28;20182;-43
2022/05/29 09:21:17;;;;;;;8.50;3.37;;;;;;;;;;4950979;28;20221;-44
2022/05/29 09:23:50;;;;;;;7.23;3.20;;;;;;;;;;4958477;28;20182;-44
2022/05/29 09:26:18;;;;;;;8.13;2.90;;;;;;;;;;4955292;28;20861;-44
2022/05/29 09:28:45;;;;;;;6.03;2.87;;;;;;;;;;4957749;28;20974;-44
2022/05/29 09:31:20;;;;;;;6.10;2.87;;;;;;;;;;4961267;28;20214;-43
2022/05/29 09:33:46;;;;;;;8.73;3.37;;;;;;;;;;4954121;28;20971;-44
2022/05/29 09:36:30;;;;;;;5.93;3.00;;;;;;;;;;4953757;28;20268;-44
2022/05/29 09:39:06;;;;;;;5.63;2.80;;;;;;;;;;4958067;28;20186;-43
2022/05/29 09:41:34;;;;;;;8.63;3.10;;;;;;;;;;4950597;28;20221;-44
2022/05/29 09:44:06;;;;;;;6.90;2.73;;;;;;;;;;4953561;28;20206;-43
2022/05/29 09:46:33;;;;;;;6.77;2.90;;;;;;;;;;4958781;28;20190;-44
2022/05/29 09:51:48;;;;;;;7.10;3.37;;;;;;;;;;4952943;28;20193;-44
2022/05/29 09:54:22;;;;;;;7.30;3.30;;;;;;;;;;4958869;28;20201;-43
2022/05/29 09:56:48;;;;;;;7.90;3.00;;;;;;;;;;4953625;28;20237;-43
2022/05/29 09:59:19;;;;;;;5.43;2.53;;;;;;;;;;4950029;28;20617;-43
2022/05/29 10:01:46;;;;;;;7.63;2.63;;;;;;;;;;4953985;28;20189;-43
2022/05/29 10:04:14;;;;;;;11.20;3.60;;;;;;;;;;4959938;28;20185;-44
2022/05/29 10:06:42;;;;;;;9.70;3.90;;;;;;;;;;4959585;28;21054;-44
2022/05/29 10:09:16;;;;;;;13.67;3.57;;;;;;;;;;4958464;28;20184;-43
2022/05/29 10:11:43;;;;;;;7.20;3.77;;;;;;;;;;4952500;28;20449;-43
2022/05/29 10:14:30;;;;;;;6.30;3.27;;;;;;;;;;4947021;28;22266;-44
2022/05/29 10:16:57;;;;;;;11.83;4.13;;;;;;;;;;4953529;28;20190;-44
2022/05/29 10:19:40;;;;;;;8.73;3.63;;;;;;;;;;4956073;28;20233;-44
2022/05/29 10:22:15;;;;;;;5.33;3.00;;;;;;;;;;4956614;28;20377;-44
2022/05/29 10:24:41;;;;;;;7.17;3.40;;;;;;;;;;4954357;28;20180;-44
2022/05/29 10:27:12;;;;;;;7.13;3.50;;;;;;;;;;4933523;28;20517;-43
2022/05/29 10:29:38;;;;;;;7.83;3.67;;;;;;;;;;4942148;28;20240;-42
2022/05/29 10:32:20;;;;;;;8.33;3.40;;;;;;;;;;4950345;28;22447;-44
2022/05/29 10:34:46;;;;;;;6.30;3.20;;;;;;;;;;4952791;28;20702;-44
2022/05/29 10:37:29;;;;;;;7.13;2.93;;;;;;;;;;4955120;28;20200;-43
2022/05/29 10:40:18;;;;;;;6.13;3.07;;;;;;;;;;4956163;28;20194;-44
2022/05/29 10:42:49;;;;;;;7.23;2.73;;;;;;;;;;4938552;28;20283;-44
2022/05/29 10:45:20;;;;;;;6.97;3.03;;;;;;;;;;4950319;28;20190;-43
2022/05/29 10:47:52;;;;;;;6.33;3.10;;;;;;;;;;4958462;28;20185;-44
2022/05/29 10:50:22;;;;;;;6.53;3.30;;;;;;;;;;4953309;28;20221;-44
2022/05/29 10:53:06;;;;;;;7.27;3.50;;;;;;;;;;4954992;28;20721;-43
2022/05/29 10:55:48;;;;;;;9.80;3.83;;;;;;;;;;4952742;28;20182;-44
2022/05/29 10:58:14;;;;;;;7.43;3.33;;;;;;;;;;4952809;28;20182;-43
2022/05/29 11:01:02;;;;;;;11.73;3.50;;;;;;;;;;4947725;28;20201;-43
2022/05/29 11:03:40;;;;;;;10.03;4.20;;;;;;;;;;4958227;28;20497;-44
2022/05/29 11:06:08;;;;;;;14.07;6.80;;;;;;;;;;4957901;28;20278;-42
2022/05/29 11:08:52;;;;;;;8.77;4.43;;;;;;;;;;4954386;28;20510;-44
2022/05/29 11:11:33;;;;;;;9.03;3.33;;;;;;;;;;4952809;28;20581;-43
2022/05/29 11:13:59;;;;;;;6.57;3.07;;;;;;;;;;4952112;28;20189;-43
2022/05/29 11:16:41;;;;;;;5.80;3.70;;;;;;;;;;4944697;28;20182;-43
2022/05/29 11:19:15;;;;;;;9.60;3.70;;;;;;;;;;4953679;28;20188;-44
2022/05/29 11:21:53;;;;;;;10.13;3.60;;;;;;;;;;4958215;28;20178;-44
2022/05/29 11:24:31;;;;;;;10.87;4.63;;;;;;;;;;4950035;28;20598;-44
2022/05/29 11:27:16;;;;;;;5.07;2.87;;;;;;;;;;4959309;28;20750;-43
2022/05/29 11:29:54;;;;;;;6.17;2.97;;;;;;;;;;4951942;28;20300;-44
2022/05/29 11:32:24;;;;;;;5.73;2.83;;;;;;;;;;4959329;28;20252;-44
2022/05/29 11:34:59;;;;;;;10.10;3.10;;;;;;;;;;4955049;28;20573;-43
2022/05/29 11:37:44;;;;;;;7.23;3.23;;;;;;;;;;4961379;28;20174;-44
2022/05/29 11:40:15;;;;;;;5.00;3.03;;;;;;;;;;4957359;28;20700;-44
2022/05/29 11:42:44;;;;;;;9.33;3.90;;;;;;;;;;4956605;28;20614;-44
2022/05/29 11:45:15;;;;;;;6.40;3.60;;;;;;;;;;4959948;28;20489;-44
2022/05/29 11:53:26;;;;;;;10.00;3.53;;;;;;;;;;4957949;28;20193;-44
2022/05/29 11:55:55;;;;;;;7.10;3.33;;;;;;;;;;4962425;28;20293;-44
2022/05/29 11:58:24;;;;;;;11.80;6.60;;;;;;;;;;4956874;28;20273;-44
2022/05/29 12:00:53;;;;;;;8.27;4.27;;;;;;;;;;4962745;28;20186;-44
2022/05/29 12:03:29;;;;;;;7.07;3.93;;;;;;;;;;4961750;28;20178;-44
2022/05/29 12:06:06;;;;;;;6.67;3.70;;;;;;;;;;4962533;28;20421;-44
2022/05/29 12:08:51;;;;;;;11.07;3.47;;;;;;;;;;4961130;28;20190;-44
2022/05/29 12:11:20;;;;;;;9.50;3.80;;;;;;;;;;4959587;28;20667;-44
2022/05/29 12:13:54;;;;;;;6.07;3.70;;;;;;;;;;4961541;28;20710;-43
2022/05/29 12:16:24;;;;;;;6.87;3.37;;;;;;;;;;4965583;28;20174;-43
2022/05/29 12:18:52;;;;;;;9.33;4.33;;;;;;;;;;4963796;28;20194;-44
2022/05/29 12:21:27;;;;;;;7.63;4.03;;;;;;;;;;4961693;28;20237;-44
2022/05/29 12:23:53;;;;;;;8.90;4.30;;;;;;;;;;4964127;28;20481;-44
2022/05/29 12:26:23;;;;;;;8.27;3.90;;;;;;;;;;4962115;28;20485;-44
2022/05/29 12:28:52;;;;;;;9.73;5.37;;;;;;;;;;4960103;28;20492;-44
2022/05/29 12:31:30;;;;;;;6.23;4.17;;;;;;;;;;4960510;28;20206;-43
2022/05/29 12:33:56;;;;;;;9.23;3.60;;;;;;;;;;4958749;28;21847;-44
2022/05/29 12:36:28;;;;;;;7.07;3.80;;;;;;;;;;4961789;28;20647;-44
2022/05/29 12:39:06;;;;;;;10.83;4.17;;;;;;;;;;4964343;28;20409;-44
2022/05/29 12:41:35;;;;;;;10.27;5.00;;;;;;;;;;4960436;28;20197;-44
2022/05/29 12:44:23;;;;;;;7.37;3.90;;;;;;;;;;4961344;28;20198;-43
2022/05/29 12:46:49;;;;;;;5.30;3.20;;;;;;;;;;4963039;28;20622;-45
2022/05/29 12:49:24;;;;;;;5.43;3.17;;;;;;;;;;4959902;28;20260;-43
2022/05/29 12:52:01;;;;;;;8.33;3.70;;;;;;;;;;4960861;28;20725;-44
2022/05/29 12:54:34;;;;;;;6.80;3.47;;;;;;;;;;4962542;28;20193;-42
2022/05/29 12:57:29;;;;;;;6.10;3.50;;;;;;;;;;4960548;28;20398;-43
2022/05/29 13:00:14;;;;;;;6.20;3.93;;;;;;;;;;4957392;28;20248;-42
2022/05/29 13:02:52;;;;;;;9.27;3.77;;;;;;;;;;4960102;28;20186;-42
2022/05/29 13:05:38;;;;;;;7.10;3.43;;;;;;;;;;4960661;28;20175;-43
2022/05/29 13:08:07;;;;;;;6.67;3.03;;;;;;;;;;4953298;28;20181;-40
2022/05/29 13:10:38;;;;;;;13.37;5.77;;;;;;;;;;4957555;28;20210;-42
2022/05/29 13:13:19;;;;;;;10.33;4.07;;;;;;;;;;4961174;28;20182;-43
2022/05/29 13:15:45;;;;;;;5.23;3.03;;;;;;;;;;4936064;28;20268;-43
2022/05/29 13:21:14;;;;;;;7.00;2.77;;;;;;;;;;4963077;28;20197;-42
2022/05/29 13:23:44;;;;;;;5.67;2.60;;;;;;;;;;4961258;28;20186;-43
2022/05/29 13:26:10;;;;;;;11.60;2.63;;;;;;;;;;4963684;28;20189;-43
2022/05/29 13:28:43;;;;;;;5.50;2.40;;;;;;;;;;4966648;28;20174;-43
2022/05/29 13:31:17;;;;;;;4.57;2.50;;;;;;;;;;4963539;28;20245;-43
2022/05/29 13:33:44;;;;;;;8.67;2.27;;;;;;;;;;4960547;28;20174;-42
2022/05/29 13:36:11;;;;;;;5.87;2.40;;;;;;;;;;4940177;28;20186;-43
2022/05/29 13:38:46;;;;;;;10.10;2.50;;;;;;;;;;4959917;28;20181;-43
2022/05/29 13:41:27;;;;;;;6.00;2.20;;;;;;;;;;4962913;28;20182;-45
2022/05/29 13:43:54;;;;;;;6.60;2.60;;;;;;;;;;4962962;28;20271;-43
2022/05/29 13:46:25;;;;;;;5.40;2.60;;;;;;;;;;4954773;28;20607;-43
2022/05/29 13:49:00;;;;;;;5.23;2.50;;;;;;;;;;4963128;28;20186;-43
2022/05/29 13:51:28;;;;;;;10.50;2.47;;;;;;;;;;4955447;28;20197;-41
2022/05/29 13:53:59;;;;;;;6.73;2.67;;;;;;;;;;4958767;28;20181;-43
2022/05/29 13:56:44;;;;;;;5.50;2.60;;;;;;;;;;4959235;28;20276;-43
2022/05/29 14:04:44;;;;;;;3.93;2.30;;;;;;;;;;4954689;28;20693;-43
2022/05/29 14:07:13;;;;;;;5.33;2.47;;;;;;;;;;4955622;28;20186;-44
2022/05/29 14:09:58;;;;;;;8.87;2.70;;;;;;;;;;4958776;28;20298;-43
2022/05/29 14:12:24;;;;;;;7.77;2.50;;;;;;;;;;4958017;28;20205;-42
2022/05/29 14:14:54;;;;;;;9.63;2.30;;;;;;;;;;4958234;28;20182;-43
2022/05/29 14:17:32;;;;;;;6.10;2.10;;;;;;;;;;4962398;28;20667;-43
2022/05/29 14:20:16;;;;;;;6.13;2.13;;;;;;;;;;4955558;28;20189;-43
2022/05/29 14:22:55;;;;;;;3.57;2.27;;;;;;;;;;4957567;28;20181;-43
2022/05/29 14:25:42;;;;;;;6.70;2.10;;;;;;;;;;4957930;28;20181;-42
2022/05/29 14:28:11;;;;;;;5.90;2.33;;;;;;;;;;4957763;28;20974;-42
2022/05/29 14:30:51;;;;;;;6.20;2.00;;;;;;;;;;4955807;28;20378;-43
2022/05/29 14:33:32;;;;;;;6.00;2.10;;;;;;;;;;4956273;28;20194;-43
2022/05/29 14:35:58;;;;;;;5.17;2.20;;;;;;;;;;4953807;28;20698;-43
2022/05/29 14:38:33;;;;;;;6.97;2.23;;;;;;;;;;4959412;28;20643;-43
2022/05/29 14:41:02;;;;;;;4.50;1.93;;;;;;;;;;4955290;28;20760;-44
2022/05/29 14:43:29;;;;;;;6.43;2.03;;;;;;;;;;4950286;28;20197;-43
2022/05/29 14:45:58;;;;;;;4.67;2.00;;;;;;;;;;4953016;28;20179;-44
2022/05/29 14:48:41;;;;;;;5.63;2.10;;;;;;;;;;4955983;28;20182;-43
2022/05/29 14:51:11;;;;;;;3.93;2.03;;;;;;;;;;4953356;28;20783;-44
2022/05/29 14:53:47;;;;;;;7.27;2.30;;;;;;;;;;4956295;28;20857;-44
2022/05/29 14:56:29;;;;;;;6.70;2.23;;;;;;;;;;4959620;28;20885;-44
2022/05/29 14:58:59;;;;;;;3.00;2.07;;;;;;;;;;4954588;28;20667;-42
2022/05/29 15:01:26;;;;;;;8.40;2.20;;;;;;;;;;4950640;28;20193;-42
2022/05/29 15:03:56;;;;;;;9.40;2.40;;;;;;;;;;4958881;28;20217;-43
2022/05/29 15:06:33;;;;;;;5.13;2.27;;;;;;;;;;4954038;28;20174;-43
2022/05/29 15:11:45;;;;;;;5.33;1.80;;;;;;;;;;4958236;28;20209;-44
2022/05/29 15:14:13;;;;;;;6.80;2.10;;;;;;;;;;4953490;28;20204;-42
2022/05/29 15:16:39;;;;;;;2.10;1.60;;;;;;;;;;4952347;28;20726;-43
2022/05/29 15:19:16;;;;;;;4.70;1.60;;;;;;;;;;4955091;28;20174;-44
2022/05/29 15:24:38;;;;;;;1.90;1.63;;;;;;;;;;4963072;28;20217;-42
2022/05/29 15:27:06;;;;;;;6.37;1.80;;;;;;;;;;4965280;28;21126;-43
2022/05/29 15:29:36;;;;;;;3.83;1.90;;;;;;;;;;4961630;28;20181;-43
2022/05/29 15:32:05;;;;;;;4.33;1.90;;;;;;;;;;4957293;28;20214;-44
2022/05/29 15:34:46;;;;;;;8.40;1.70;;;;;;;;;;4962832;28;20181;-43
2022/05/29 15:37:25;;;;;;;4.93;1.83;;;;;;;;;;4938788;28;20189;-43
2022/05/29 15:39:57;;;;;;;6.07;1.70;;;;;;;;;;4956869;28;20186;-44
2022/05/29 15:42:25;;;;;;;5.87;2.00;;;;;;;;;;4960380;28;20165;-43
2022/05/29 15:45:06;;;;;;;5.27;2.00;;;;;;;;;;4957425;28;20182;-44
2022/05/29 15:47:59;;;;;;;4.73;1.67;;;;;;;;;;4960305;28;20281;-44